Terminal Aerodrome Forecast
Issued by NWS

Home | Current Version | Previous Version | Graphics & Text | Print | Product List | Glossary On
Versions: 1 2 3 4 5 6 7 8 9 10 11 12 13 14
000
FTUS43 KMPX 160500
TAFAXN
TAF
KAXN 160539Z 1606/1706 35018G26KT P6SM OVC014
     FM161400 34016KT P6SM OVC020
     FM162200 33012KT P6SM BKN026=

USA.gov is the U.S. government's official web portal to all federal, state and local government web resources and services.